»·PEaware :: CAP418 KPOC-KSEE

CAP418 :: KPOC-KSEE

FLIGHT INFORMATION

Flight Status: Arrived
Operator: Unknown
More flights by this operator :: More flights under this callsign
Pilot: Tim P. (42724)
Aircraft: CESSNA 172 SKYHAWK
(C172)
More flights by this aircraft type
Origin: KPOC Brackett
United States
Destination: KSEE Gillespie
United States
More flights between these airports :: More routes between these airports
Route: PRADO V16 PDZ V186 HAILE V66 MZB
File this flight plan on PilotEdge
Remarks:
Altitude:
(Current/Filed)
9,000ft
Speed:
(Current/Filed)
135kts
Departed: 15-Oct-23 02:09 PM
Arrived: 15-Oct-23 03:03 PM
Distance/Time
Traveled:
86nm/0:54
Distance/Time
To Go:
Arrived

Flight Plot

Page will automatically refresh every two minutes.

Flight plan parsing failed; only flown route is shown


Map Options




Map Legend


Flown Route
Filed Route
Departure Airport
Arrival Airport
Navaid (VOR, NDB)
Fix

Horizontal Profiles

Position Reports

Time Latitude Longitude Heading Altitude Ground
Speed
15-Oct-23 13:10 34.089800 -117.777097 182 1010ft 0kts
15-Oct-23 13:11 34.089800 -117.777097 182 1010ft 0kts
15-Oct-23 13:12 34.089800 -117.777097 182 1010ft 0kts
15-Oct-23 13:13 34.089800 -117.777097 182 1010ft 0kts
15-Oct-23 13:14 34.089800 -117.777097 182 1010ft 0kts
15-Oct-23 13:15 34.089800 -117.777097 182 1010ft 0kts
15-Oct-23 13:16 34.089800 -117.777097 182 1010ft 0kts
15-Oct-23 13:17 34.089677 -117.776829 353 1011ft 0kts
15-Oct-23 13:18 34.089677 -117.776829 353 1011ft 0kts
15-Oct-23 13:19 34.089677 -117.776829 353 1011ft 0kts
15-Oct-23 13:20 34.089677 -117.776830 353 1011ft 0kts
15-Oct-23 13:21 34.089677 -117.776829 353 1011ft 0kts
15-Oct-23 13:22 34.089677 -117.776829 353 1011ft 0kts
15-Oct-23 13:23 34.089677 -117.776830 353 1011ft 0kts
15-Oct-23 13:24 34.089677 -117.776830 353 1018ft 0kts
15-Oct-23 13:25 34.089677 -117.776830 353 1018ft 0kts
15-Oct-23 13:26 34.089677 -117.776830 353 1018ft 0kts
15-Oct-23 13:27 34.089677 -117.776830 353 1018ft 0kts
15-Oct-23 13:28 34.089677 -117.776829 353 1018ft 0kts
15-Oct-23 13:29 34.089677 -117.776829 353 1018ft 0kts
15-Oct-23 13:30 34.089677 -117.776829 353 1018ft 0kts
15-Oct-23 13:31 34.089677 -117.776829 353 1018ft 0kts
15-Oct-23 13:32 34.089677 -117.776829 353 1018ft 0kts
15-Oct-23 13:33 34.089677 -117.776829 353 1018ft 0kts
15-Oct-23 13:34 34.089677 -117.776829 353 1018ft 0kts
15-Oct-23 13:35 34.089677 -117.776829 353 1018ft 0kts
15-Oct-23 13:36 34.089677 -117.776829 353 1018ft 0kts
15-Oct-23 13:37 34.089677 -117.776829 353 1018ft 0kts
15-Oct-23 13:38 34.089677 -117.776830 353 1009ft 0kts
15-Oct-23 13:39 34.089677 -117.776830 353 1009ft 0kts
15-Oct-23 13:40 34.089677 -117.776830 353 1009ft 0kts
15-Oct-23 13:41 34.089677 -117.776830 353 1009ft 0kts
15-Oct-23 13:42 34.089677 -117.776830 353 1009ft 0kts
15-Oct-23 13:43 34.089677 -117.776830 353 1009ft 0kts
15-Oct-23 13:44 34.089677 -117.776830 353 1009ft 0kts
15-Oct-23 13:45 34.089677 -117.776830 353 1009ft 0kts
15-Oct-23 13:46 34.089677 -117.776830 353 1009ft 0kts
15-Oct-23 13:47 34.089677 -117.776830 352 1009ft 0kts
15-Oct-23 13:48 34.089677 -117.776830 352 1009ft 0kts
15-Oct-23 13:49 34.089677 -117.776830 352 1009ft 0kts
15-Oct-23 13:50 34.089677 -117.776830 352 1009ft 0kts
15-Oct-23 13:51 34.089677 -117.776830 352 1009ft 0kts
15-Oct-23 13:52 34.089677 -117.776830 352 1009ft 0kts
15-Oct-23 13:53 34.089677 -117.776830 352 1009ft 0kts
15-Oct-23 13:54 34.089677 -117.776830 352 1009ft 0kts
15-Oct-23 13:55 34.089677 -117.776830 352 1010ft 0kts
15-Oct-23 13:56 34.089677 -117.776830 352 1010ft 0kts
15-Oct-23 13:57 34.089677 -117.776830 352 1010ft 0kts
15-Oct-23 13:58 34.089677 -117.776830 352 1010ft 0kts
15-Oct-23 13:59 34.089677 -117.776830 352 1010ft 0kts
15-Oct-23 14:00 34.089677 -117.776830 352 1009ft 0kts
15-Oct-23 14:01 34.089677 -117.776830 352 1009ft 0kts
15-Oct-23 14:02 34.089677 -117.776830 352 1009ft 0kts
15-Oct-23 14:03 34.089677 -117.776830 352 1009ft 0kts
15-Oct-23 14:04 34.090319 -117.776313 84 1007ft 7kts
15-Oct-23 14:05 34.090479 -117.774690 357 1012ft 0kts
15-Oct-23 14:06 34.090479 -117.774690 357 1012ft 0kts
15-Oct-23 14:07 34.091022 -117.775752 272 1010ft 33kts
15-Oct-23 14:08 34.082547 -117.786893 186 1421ft 82kts
15-Oct-23 14:09 34.057212 -117.781079 176 2091ft 94kts
15-Oct-23 14:10 34.030998 -117.778582 176 2742ft 93kts
15-Oct-23 14:11 34.004553 -117.779586 183 3386ft 96kts
15-Oct-23 14:12 33.984599 -117.766594 108 3975ft 93kts
15-Oct-23 14:13 33.976316 -117.736606 108 4637ft 93kts
15-Oct-23 14:14 33.968146 -117.707288 108 5298ft 91kts
15-Oct-23 14:15 33.960452 -117.679701 107 5946ft 82kts
15-Oct-23 14:16 33.953852 -117.655928 107 6538ft 64kts
15-Oct-23 14:17 33.946396 -117.631437 113 6556ft 95kts
15-Oct-23 14:18 33.937544 -117.601782 105 6889ft 92kts
15-Oct-23 14:19 33.930404 -117.571592 110 7323ft 93kts
15-Oct-23 14:20 33.921673 -117.541442 109 7714ft 97kts
15-Oct-23 14:21 33.904192 -117.518000 145 8109ft 98kts
15-Oct-23 14:22 33.881670 -117.499100 146 8499ft 99kts
15-Oct-23 14:23 33.858896 -117.480007 146 8889ft 99kts
15-Oct-23 14:24 33.833523 -117.458845 146 8908ft 115kts
15-Oct-23 14:25 33.806965 -117.436611 146 8904ft 116kts
15-Oct-23 14:26 33.780323 -117.414312 146 8929ft 116kts
15-Oct-23 14:27 33.753880 -117.392197 146 8928ft 116kts
15-Oct-23 14:28 33.727118 -117.369836 146 8923ft 117kts
15-Oct-23 14:29 33.700321 -117.347461 146 8923ft 117kts
15-Oct-23 14:30 33.673412 -117.325008 146 8917ft 117kts
15-Oct-23 14:31 33.646512 -117.302582 146 8915ft 117kts
15-Oct-23 14:32 33.619798 -117.280329 146 8911ft 117kts
15-Oct-23 14:33 33.592960 -117.257991 146 8912ft 117kts
15-Oct-23 14:34 33.566067 -117.235624 146 8912ft 117kts
15-Oct-23 14:35 33.539192 -117.213288 146 8911ft 118kts
15-Oct-23 14:36 33.512165 -117.190845 146 8894ft 117kts
15-Oct-23 14:37 33.485233 -117.168495 146 8895ft 117kts
15-Oct-23 14:38 33.454673 -117.156693 170 8898ft 118kts
15-Oct-23 14:39 33.421969 -117.149772 170 8754ft 128kts
15-Oct-23 14:40 33.384962 -117.141979 169 8211ft 137kts
15-Oct-23 14:41 33.346828 -117.133937 171 7651ft 140kts
15-Oct-23 14:42 33.309175 -117.131259 164 7167ft 138kts
15-Oct-23 14:43 33.275073 -117.119446 161 6942ft 116kts
15-Oct-23 14:44 33.243619 -117.109035 162 6958ft 119kts
15-Oct-23 14:45 33.211784 -117.098564 162 6959ft 118kts
15-Oct-23 14:46 33.179282 -117.090591 168 6965ft 120kts
15-Oct-23 14:47 33.146380 -117.084343 168 6963ft 119kts
15-Oct-23 14:48 33.116565 -117.070258 141 6761ft 114kts
15-Oct-23 14:49 33.091270 -117.047818 141 6289ft 112kts
15-Oct-23 14:50 33.066035 -117.025653 141 5808ft 114kts
15-Oct-23 14:51 33.040461 -117.003069 141 5329ft 115kts
15-Oct-23 14:52 33.015781 -116.981307 141 4980ft 103kts
15-Oct-23 14:53 32.991376 -116.961017 155 5020ft 114kts
15-Oct-23 14:54 32.959534 -116.945781 155 4815ft 132kts
15-Oct-23 14:55 32.925525 -116.928593 155 4324ft 137kts
15-Oct-23 14:56 32.889909 -116.910600 157 3836ft 138kts
15-Oct-23 14:57 32.854822 -116.892846 158 3361ft 140kts
15-Oct-23 14:59 32.818416 -116.877235 199 2867ft 134kts
15-Oct-23 15:00 32.814309 -116.909740 299 2612ft 102kts
15-Oct-23 15:01 32.822011 -116.939255 281 1431ft 95kts
15-Oct-23 15:02 32.826792 -116.966278 281 395ft 70kts
15-Oct-23 15:03 32.827515 -116.972975 181 369ft 0kts
15-Oct-23 15:04 32.825804 -116.973503 216 371ft 0kts

Navigation Log

Ident Type
Flight plan parsing failed, navigation log unavailable